createdAt,value
2023-01-21T00:01:04.963Z,2.50
2023-01-21T00:03:32.944Z,2.70
2023-01-21T00:05:59.876Z,2.30
2023-01-21T00:08:27.175Z,2.30
2023-01-21T00:10:54.533Z,2.30
2023-01-21T00:13:21.489Z,2.20
2023-01-21T00:15:48.222Z,4.60
2023-01-21T00:18:15.108Z,2.00
2023-01-21T00:20:41.891Z,2.00
2023-01-21T00:23:10.761Z,2.43
2023-01-21T00:25:37.435Z,2.30
2023-01-21T00:28:04.209Z,2.80
2023-01-21T00:30:31.023Z,1.93
2023-01-21T00:32:57.713Z,1.90
2023-01-21T00:35:24.406Z,2.17
2023-01-21T00:37:52.124Z,3.00
2023-01-21T00:40:19.198Z,2.43
2023-01-21T00:42:46.139Z,2.50
2023-01-21T00:45:12.880Z,2.50
2023-01-21T00:47:39.922Z,2.60
2023-01-21T00:50:07.335Z,2.50
2023-01-21T00:52:34.061Z,2.77
2023-01-21T00:55:00.788Z,2.50
2023-01-21T00:57:27.501Z,2.73
2023-01-21T00:59:54.511Z,2.43
2023-01-21T01:02:21.311Z,2.20
2023-01-21T01:04:48.085Z,2.37
2023-01-21T01:07:14.960Z,2.50
2023-01-21T01:09:41.703Z,3.20
2023-01-21T01:12:08.422Z,2.83
2023-01-21T01:14:35.104Z,2.20
2023-01-21T01:17:01.783Z,2.80
2023-01-21T01:19:28.555Z,2.60
2023-01-21T01:21:55.255Z,2.67
2023-01-21T01:24:21.966Z,3.67
2023-01-21T01:26:48.681Z,2.17
2023-01-21T01:29:15.344Z,2.47
2023-01-21T01:31:43.681Z,2.50
2023-01-21T01:34:10.460Z,2.40
2023-01-21T01:36:37.173Z,2.77
2023-01-21T01:39:05.003Z,3.13
2023-01-21T01:41:34.988Z,2.07
2023-01-21T01:44:03.288Z,2.20
2023-01-21T01:46:34.961Z,2.47
2023-01-21T01:49:18.400Z,2.23
2023-01-21T01:51:49.936Z,2.27
2023-01-21T01:54:22.911Z,2.40
2023-01-21T01:56:53.992Z,3.07
2023-01-21T01:59:21.465Z,2.03
2023-01-21T02:01:48.538Z,2.40
2023-01-21T02:04:25.143Z,2.47
2023-01-21T02:06:54.547Z,3.00
2023-01-21T02:09:22.000Z,2.03
2023-01-21T02:11:49.028Z,2.40
2023-01-21T02:14:16.448Z,2.70
2023-01-21T02:17:01.847Z,2.33
2023-01-21T02:19:42.426Z,2.60
2023-01-21T02:22:27.160Z,2.53
2023-01-21T02:25:05.989Z,2.80
2023-01-21T02:27:55.041Z,2.50
2023-01-21T02:30:39.915Z,2.47
2023-01-21T02:33:09.817Z,2.13
2023-01-21T02:35:44.196Z,2.13
2023-01-21T02:38:32.035Z,2.00
2023-01-21T02:41:14.523Z,2.20
2023-01-21T02:44:15.192Z,1.97
2023-01-21T02:46:47.405Z,2.53
2023-01-21T02:49:29.628Z,2.10
2023-01-21T02:51:56.401Z,3.10
2023-01-21T02:54:41.461Z,2.10
2023-01-21T02:57:13.589Z,2.17
2023-01-21T02:59:45.665Z,2.30
2023-01-21T03:02:21.352Z,2.57
2023-01-21T03:04:47.989Z,2.70
2023-01-21T03:07:28.919Z,2.40
2023-01-21T03:10:18.369Z,2.23
2023-01-21T03:13:00.875Z,1.73
2023-01-21T03:16:10.068Z,1.90
2023-01-21T03:18:42.094Z,2.20
2023-01-21T03:21:13.911Z,3.27
2023-01-21T03:23:44.369Z,2.67
2023-01-21T03:26:16.718Z,2.97
2023-01-21T03:28:49.034Z,2.17
2023-01-21T03:31:23.620Z,2.20
2023-01-21T03:33:55.974Z,1.97
2023-01-21T03:36:42.924Z,1.90
2023-01-21T03:39:23.783Z,2.07
2023-01-21T03:41:50.528Z,2.40
2023-01-21T03:44:17.374Z,2.27
2023-01-21T03:46:49.993Z,1.97
2023-01-21T03:49:19.324Z,2.17
2023-01-21T03:51:51.472Z,2.10
2023-01-21T03:54:18.326Z,2.03
2023-01-21T03:56:45.025Z,2.23
2023-01-21T03:59:11.782Z,2.10
2023-01-21T04:01:39.597Z,2.23
2023-01-21T04:04:06.624Z,2.10
2023-01-21T04:06:33.549Z,2.20
2023-01-21T04:09:00.261Z,2.03
2023-01-21T04:11:26.964Z,1.70
2023-01-21T04:13:53.680Z,1.87
2023-01-21T04:16:20.481Z,1.83
2023-01-21T04:18:47.759Z,1.90
2023-01-21T04:21:14.951Z,2.30
2023-01-21T04:23:42.028Z,2.80
2023-01-21T04:26:08.959Z,1.90
2023-01-21T04:28:35.672Z,2.00
2023-01-21T04:31:02.776Z,1.60
2023-01-21T04:33:30.657Z,1.77
2023-01-21T04:36:01.370Z,2.30
2023-01-21T04:38:28.316Z,2.10
2023-01-21T04:40:55.083Z,2.93
2023-01-21T04:43:21.834Z,2.37
2023-01-21T04:45:50.047Z,2.73
2023-01-21T04:48:17.569Z,2.20
2023-01-21T04:50:45.825Z,2.40
2023-01-21T04:53:12.564Z,2.37
2023-01-21T04:55:39.220Z,2.30
2023-01-21T04:58:06.114Z,1.80
2023-01-21T05:00:32.850Z,2.60
2023-01-21T05:02:59.544Z,2.60
2023-01-21T05:05:26.207Z,2.23
2023-01-21T05:07:54.008Z,3.00
2023-01-21T05:10:20.697Z,1.90
2023-01-21T05:12:48.521Z,2.27
2023-01-21T05:15:15.325Z,2.17
2023-01-21T05:17:42.093Z,2.30
2023-01-21T05:20:10.043Z,2.50
2023-01-21T05:22:36.822Z,2.30
2023-01-21T05:25:03.992Z,2.07
2023-01-21T05:27:30.750Z,1.90
2023-01-21T05:29:57.475Z,2.53
2023-01-21T05:32:24.532Z,2.40
2023-01-21T05:34:51.303Z,1.93
2023-01-21T05:37:17.988Z,2.13
2023-01-21T05:39:44.745Z,2.03
2023-01-21T05:42:11.471Z,2.20
2023-01-21T05:44:38.152Z,2.30
2023-01-21T05:47:05.068Z,1.83
2023-01-21T05:49:31.786Z,2.10
2023-01-21T05:51:58.493Z,4.37
2023-01-21T05:54:25.154Z,3.37
2023-01-21T05:56:51.949Z,2.20
2023-01-21T05:59:18.655Z,4.63
2023-01-21T06:01:45.335Z,2.50
2023-01-21T06:04:12.020Z,2.37
2023-01-21T06:06:40.559Z,2.30
2023-01-21T06:09:07.347Z,1.73
2023-01-21T06:11:34.140Z,2.43
2023-01-21T06:14:00.834Z,1.90
2023-01-21T06:16:27.540Z,2.10
2023-01-21T06:18:54.207Z,2.20
2023-01-21T06:21:20.899Z,4.33
2023-01-21T06:23:47.615Z,2.27
2023-01-21T06:26:14.268Z,2.50
2023-01-21T06:28:40.955Z,1.90
2023-01-21T06:31:07.715Z,2.43
2023-01-21T06:33:34.804Z,2.57
2023-01-21T06:36:01.612Z,2.03
2023-01-21T06:38:28.277Z,2.50
2023-01-21T06:40:54.959Z,1.90
2023-01-21T06:43:21.717Z,2.30
2023-01-21T06:45:48.543Z,2.30
2023-01-21T06:48:15.201Z,1.97
2023-01-21T06:50:41.918Z,2.30
2023-01-21T06:53:08.616Z,2.23
2023-01-21T06:55:35.329Z,2.30
2023-01-21T06:58:02.020Z,2.33
2023-01-21T07:00:28.784Z,2.10
2023-01-21T07:02:59.560Z,2.70
2023-01-21T07:05:27.127Z,2.33
2023-01-21T07:07:55.621Z,2.60
2023-01-21T07:10:23.895Z,2.87
2023-01-21T07:12:50.856Z,2.67
2023-01-21T07:15:17.984Z,2.50
2023-01-21T07:17:44.925Z,2.60
2023-01-21T07:20:14.623Z,2.20
2023-01-21T07:22:41.362Z,2.63
2023-01-21T07:25:08.580Z,2.40
2023-01-21T07:27:35.235Z,2.57
2023-01-21T07:30:01.960Z,2.50
2023-01-21T07:32:28.715Z,2.33
2023-01-21T07:34:55.360Z,3.10
2023-01-21T07:37:22.092Z,2.53
2023-01-21T07:39:48.751Z,3.00
2023-01-21T07:42:15.590Z,3.30
2023-01-21T07:44:42.355Z,3.13
2023-01-21T07:47:10.428Z,2.77
2023-01-21T07:49:37.589Z,2.97
2023-01-21T07:52:04.369Z,2.73
2023-01-21T07:54:31.054Z,2.83
2023-01-21T07:56:58.090Z,3.30
2023-01-21T07:59:24.758Z,2.67
2023-01-21T08:01:51.694Z,2.43
2023-01-21T08:04:18.519Z,3.33
2023-01-21T08:06:45.232Z,2.40
2023-01-21T08:09:11.972Z,3.23
2023-01-21T08:11:38.659Z,4.17
2023-01-21T08:14:05.745Z,2.93
2023-01-21T08:16:32.501Z,3.10
2023-01-21T08:18:59.225Z,3.23
2023-01-21T08:21:25.981Z,2.50
2023-01-21T08:23:52.668Z,2.60
2023-01-21T08:26:19.360Z,4.90
2023-01-21T08:28:46.055Z,2.83
2023-01-21T08:31:13.439Z,2.73
2023-01-21T08:33:40.483Z,2.53
2023-01-21T08:36:08.770Z,2.60
2023-01-21T08:38:35.743Z,3.40
2023-01-21T08:41:02.467Z,2.97
2023-01-21T08:43:29.504Z,2.83
2023-01-21T08:45:57.625Z,2.77
2023-01-21T08:48:24.566Z,3.10
2023-01-21T08:50:51.275Z,2.80
2023-01-21T08:53:18.071Z,3.37
2023-01-21T08:55:45.025Z,2.20
2023-01-21T08:58:11.715Z,3.03
2023-01-21T09:00:38.457Z,3.70
2023-01-21T09:03:05.151Z,2.60
2023-01-21T09:05:31.820Z,3.47
2023-01-21T09:07:58.584Z,2.47
2023-01-21T09:10:51.933Z,2.63
2023-01-21T09:13:20.002Z,2.10
2023-01-21T09:15:46.801Z,5.07
2023-01-21T09:18:13.665Z,2.20
2023-01-21T09:20:40.707Z,2.77
2023-01-21T09:23:27.678Z,2.97
2023-01-21T09:26:00.660Z,2.57
2023-01-21T09:28:28.921Z,2.50
2023-01-21T09:31:00.717Z,2.57
2023-01-21T09:33:28.783Z,2.50
2023-01-21T09:36:00.760Z,2.77
2023-01-21T09:38:28.625Z,3.00
2023-01-21T09:40:57.324Z,2.50
2023-01-21T09:43:33.657Z,2.73
2023-01-21T09:46:04.114Z,2.53
2023-01-21T09:48:41.235Z,3.10
2023-01-21T09:51:21.231Z,1.90
2023-01-21T09:53:55.065Z,2.47
2023-01-21T09:56:42.825Z,2.40
2023-01-21T09:59:27.518Z,2.00
2023-01-21T10:02:00.142Z,2.30
2023-01-21T10:04:53.078Z,2.60
2023-01-21T10:07:29.821Z,2.60
2023-01-21T10:10:14.268Z,3.93
2023-01-21T10:13:17.021Z,2.13
2023-01-21T10:15:54.080Z,1.93
2023-01-21T10:18:29.734Z,2.13
2023-01-21T10:21:05.321Z,2.30
2023-01-21T10:23:43.117Z,2.33
2023-01-21T10:26:12.983Z,2.43
2023-01-21T10:28:42.941Z,2.10
2023-01-21T10:31:21.380Z,2.10
2023-01-21T10:33:48.278Z,2.07
2023-01-21T10:36:33.548Z,2.00
2023-01-21T10:39:10.666Z,2.13
2023-01-21T10:42:04.195Z,1.93
2023-01-21T10:44:46.143Z,2.37
2023-01-21T10:47:34.969Z,2.27
2023-01-21T10:50:18.046Z,2.07
2023-01-21T10:52:59.142Z,2.13
2023-01-21T10:55:58.473Z,2.10
2023-01-21T10:58:54.333Z,2.77
2023-01-21T11:01:35.547Z,1.87
2023-01-21T11:04:10.454Z,2.57
2023-01-21T11:06:38.759Z,2.73
2023-01-21T11:09:07.956Z,2.40
2023-01-21T11:11:36.828Z,2.50
2023-01-21T11:14:03.606Z,4.57
2023-01-21T11:16:39.412Z,4.17
2023-01-21T11:19:07.236Z,8.50
2023-01-21T11:21:34.282Z,12.97
2023-01-21T11:24:03.747Z,13.30
2023-01-21T11:26:34.253Z,20.17
2023-01-21T11:29:07.857Z,25.90
2023-01-21T11:31:35.396Z,24.87
2023-01-21T11:34:07.445Z,29.90
2023-01-21T11:36:34.534Z,42.73
2023-01-21T11:39:04.064Z,68.67
2023-01-21T11:41:31.557Z,91.77
2023-01-21T11:44:16.214Z,102.63
2023-01-21T11:46:43.011Z,111.90
2023-01-21T11:49:09.649Z,103.60
2023-01-21T11:51:38.613Z,112.97
2023-01-21T11:54:12.211Z,114.33
2023-01-21T11:56:39.779Z,107.73
2023-01-21T11:59:31.685Z,110.43
2023-01-21T12:02:18.371Z,103.33
2023-01-21T12:04:55.161Z,96.23
2023-01-21T12:07:27.144Z,103.70
2023-01-21T12:10:39.812Z,93.70
2023-01-21T12:13:20.084Z,103.67
2023-01-21T12:16:03.620Z,92.53
2023-01-21T12:18:51.657Z,86.43
2023-01-21T12:21:52.335Z,78.83
2023-01-21T12:24:19.003Z,75.43
2023-01-21T12:27:04.491Z,77.60
2023-01-21T12:29:53.273Z,72.50
2023-01-21T12:32:23.778Z,70.03
2023-01-21T12:35:05.383Z,75.23
2023-01-21T12:37:49.483Z,69.90
2023-01-21T12:40:43.620Z,72.83
2023-01-21T12:43:34.026Z,62.00
2023-01-21T12:46:10.606Z,66.83
2023-01-21T12:48:44.450Z,60.67
2023-01-21T12:51:18.605Z,59.90
2023-01-21T12:54:04.101Z,59.97
2023-01-21T12:57:09.096Z,59.90
2023-01-21T12:59:39.700Z,54.17
2023-01-21T13:02:20.675Z,52.63
2023-01-21T13:05:15.655Z,53.80
2023-01-21T13:07:57.756Z,51.53
2023-01-21T13:10:30.799Z,52.30
2023-01-21T13:13:03.925Z,42.13
2023-01-21T13:15:35.565Z,43.03
2023-01-21T13:18:11.673Z,20.47
2023-01-21T13:20:43.732Z,8.90
2023-01-21T13:23:17.716Z,5.47
2023-01-21T13:25:47.843Z,4.00
2023-01-21T13:28:25.229Z,3.87
2023-01-21T13:31:20.094Z,5.00
2023-01-21T13:34:16.730Z,3.97
2023-01-21T13:36:56.190Z,4.67
2023-01-21T13:39:53.026Z,4.30
2023-01-21T13:43:03.955Z,4.30
2023-01-21T13:45:56.795Z,4.00
2023-01-21T13:48:51.088Z,4.43
2023-01-21T13:51:35.527Z,3.20
2023-01-21T13:54:49.596Z,3.63
2023-01-21T13:57:22.183Z,4.50
2023-01-21T13:59:56.095Z,4.23
2023-01-21T14:02:27.393Z,3.80
2023-01-21T14:05:04.123Z,4.40
2023-01-21T14:07:33.849Z,4.10
2023-01-21T14:10:16.694Z,4.07
2023-01-21T14:12:43.981Z,5.00
2023-01-21T14:15:36.663Z,4.37
2023-01-21T14:18:12.549Z,4.37
2023-01-21T14:20:53.502Z,3.90
2023-01-21T14:23:38.843Z,3.83
2023-01-21T14:26:35.379Z,3.10
2023-01-21T14:29:21.884Z,4.13
2023-01-21T14:31:55.611Z,3.43
2023-01-21T14:34:34.756Z,3.50
2023-01-21T14:37:09.840Z,3.73
2023-01-21T14:39:54.963Z,3.70
2023-01-21T14:42:39.905Z,4.77
2023-01-21T14:45:08.264Z,3.43
2023-01-21T14:47:35.322Z,3.77
2023-01-21T14:50:02.107Z,3.20
2023-01-21T14:52:34.906Z,4.90
2023-01-21T14:55:02.127Z,3.80
2023-01-21T14:57:36.007Z,4.73
2023-01-21T15:00:08.740Z,4.20
2023-01-21T15:02:47.162Z,3.73
2023-01-21T15:05:38.365Z,3.97
2023-01-21T15:08:15.841Z,5.30
2023-01-21T15:10:43.145Z,5.13
2023-01-21T15:13:39.010Z,5.83
2023-01-21T15:16:14.792Z,4.40
2023-01-21T15:19:05.085Z,4.00
2023-01-21T15:21:37.630Z,4.90
2023-01-21T15:24:38.701Z,4.53
2023-01-21T15:27:19.594Z,4.37
2023-01-21T15:29:55.188Z,6.07
2023-01-21T15:32:45.323Z,4.53
2023-01-21T15:35:36.962Z,3.97
2023-01-21T15:38:12.902Z,4.20
2023-01-21T15:40:48.287Z,4.70
2023-01-21T15:43:30.035Z,5.90
2023-01-21T15:46:37.792Z,4.93
2023-01-21T15:49:28.999Z,4.70
2023-01-21T15:52:19.754Z,4.93
2023-01-21T15:54:58.281Z,5.07
2023-01-21T15:57:52.168Z,4.70
2023-01-21T16:00:24.596Z,4.97
2023-01-21T16:02:57.960Z,5.13
2023-01-21T16:06:01.516Z,4.60
2023-01-21T16:08:34.317Z,4.83
2023-01-21T16:11:32.053Z,5.40
2023-01-21T16:14:26.986Z,4.40
2023-01-21T16:17:03.084Z,5.03
2023-01-21T16:19:35.125Z,4.10
2023-01-21T16:22:07.472Z,5.73
2023-01-21T16:24:40.281Z,4.93
2023-01-21T16:27:17.439Z,3.97
2023-01-21T16:29:44.142Z,4.40
2023-01-21T16:32:19.319Z,4.37
2023-01-21T16:34:47.261Z,4.57
2023-01-21T16:37:19.367Z,3.93
2023-01-21T16:39:46.984Z,6.77
2023-01-21T16:42:36.610Z,5.93
2023-01-21T16:45:22.271Z,4.37
2023-01-21T16:48:00.626Z,3.97
2023-01-21T16:50:29.760Z,4.30
2023-01-21T16:52:58.685Z,5.07
2023-01-21T16:55:28.067Z,4.57
2023-01-21T16:57:57.876Z,3.77
2023-01-21T17:00:29.812Z,4.67
2023-01-21T17:02:57.718Z,3.93
2023-01-21T17:05:30.665Z,4.50
2023-01-21T17:08:00.609Z,3.93
2023-01-21T17:10:39.905Z,4.57
2023-01-21T17:13:14.073Z,4.80
2023-01-21T17:15:50.146Z,3.90
2023-01-21T17:18:35.653Z,3.83
2023-01-21T17:21:13.199Z,4.30
2023-01-21T17:23:47.763Z,3.80
2023-01-21T17:26:22.401Z,3.70
2023-01-21T17:28:53.887Z,3.80
2023-01-21T17:31:26.658Z,4.20
2023-01-21T17:34:15.199Z,4.03
2023-01-21T17:36:44.295Z,4.10
2023-01-21T17:39:12.000Z,5.40
2023-01-21T17:41:41.240Z,4.30
2023-01-21T17:44:20.844Z,4.07
2023-01-21T17:46:49.667Z,3.37
2023-01-21T17:49:26.298Z,3.90
2023-01-21T17:51:55.232Z,4.10
2023-01-21T17:54:24.631Z,4.53
2023-01-21T17:56:55.834Z,3.67
2023-01-21T17:59:34.551Z,3.80
2023-01-21T18:02:03.220Z,3.87
2023-01-21T18:04:30.081Z,4.13
2023-01-21T18:06:57.512Z,3.40
2023-01-21T18:09:25.409Z,5.70
2023-01-21T18:11:56.172Z,4.57
2023-01-21T18:14:25.339Z,4.20
2023-01-21T18:16:56.263Z,3.47
2023-01-21T18:19:33.173Z,4.20
2023-01-21T18:22:01.388Z,3.77
2023-01-21T18:24:28.203Z,3.30
2023-01-21T18:26:57.253Z,3.30
2023-01-21T18:29:28.671Z,3.87
2023-01-21T18:31:55.456Z,4.00
2023-01-21T18:34:22.405Z,4.00
2023-01-21T18:36:49.387Z,3.77
2023-01-21T18:39:20.377Z,4.07
2023-01-21T18:41:47.570Z,3.53
2023-01-21T18:44:15.142Z,3.53
2023-01-21T18:46:42.276Z,3.50
2023-01-21T18:49:18.156Z,3.30
2023-01-21T18:51:45.557Z,3.43
2023-01-21T18:54:16.293Z,3.43
2023-01-21T18:56:44.120Z,3.93
2023-01-21T18:59:16.693Z,3.77
2023-01-21T19:01:44.810Z,3.23
2023-01-21T19:04:15.714Z,2.93
2023-01-21T19:06:42.924Z,3.10
2023-01-21T19:09:35.716Z,3.37
2023-01-21T19:12:02.426Z,3.30
2023-01-21T19:14:29.096Z,3.13
2023-01-21T19:16:55.884Z,2.60
2023-01-21T19:19:25.460Z,3.03
2023-01-21T19:21:53.311Z,3.03
2023-01-21T19:24:20.001Z,3.90
2023-01-21T19:26:46.956Z,3.40
2023-01-21T19:29:16.546Z,3.70
2023-01-21T19:31:43.356Z,3.40
2023-01-21T19:34:10.706Z,3.33
2023-01-21T19:36:39.132Z,3.07
2023-01-21T19:39:16.155Z,2.90
2023-01-21T19:41:42.895Z,3.10
2023-01-21T19:44:09.579Z,3.43
2023-01-21T19:46:36.379Z,3.50
2023-01-21T19:49:13.562Z,2.87
2023-01-21T19:51:40.374Z,3.50
2023-01-21T19:54:07.116Z,2.93
2023-01-21T19:56:33.854Z,3.33
2023-01-21T19:59:02.565Z,3.90
2023-01-21T20:01:29.613Z,3.47
2023-01-21T20:04:00.615Z,3.50
2023-01-21T20:06:31.543Z,4.80
2023-01-21T20:09:00.758Z,4.10
2023-01-21T20:11:27.453Z,3.20
2023-01-21T20:13:54.179Z,3.20
2023-01-21T20:16:23.033Z,3.13
2023-01-21T20:18:50.056Z,3.40
2023-01-21T20:21:16.821Z,3.30
2023-01-21T20:23:43.514Z,3.80
2023-01-21T20:26:22.836Z,2.70
2023-01-21T20:28:51.461Z,3.37
2023-01-21T20:31:18.791Z,3.17
2023-01-21T20:33:46.055Z,3.63
2023-01-21T20:36:21.027Z,3.03
2023-01-21T20:38:48.096Z,3.20
2023-01-21T20:41:14.921Z,2.70
2023-01-21T20:43:41.927Z,3.23
2023-01-21T20:46:21.799Z,2.90
2023-01-21T20:48:48.751Z,3.43
2023-01-21T20:51:15.564Z,2.87
2023-01-21T20:53:42.335Z,3.00
2023-01-21T20:56:29.761Z,3.47
2023-01-21T20:58:57.120Z,3.20
2023-01-21T21:01:25.437Z,3.80
2023-01-21T21:03:52.679Z,3.90
2023-01-21T21:06:25.797Z,3.33
2023-01-21T21:08:52.741Z,3.30
2023-01-21T21:11:20.269Z,3.57
2023-01-21T21:13:49.272Z,2.80
2023-01-21T21:16:20.957Z,4.00
2023-01-21T21:18:48.381Z,4.53
2023-01-21T21:21:19.718Z,4.00
2023-01-21T21:23:47.410Z,3.10
2023-01-21T21:26:24.465Z,3.10
2023-01-21T21:28:55.709Z,3.13
2023-01-21T21:31:23.057Z,3.47
2023-01-21T21:33:49.880Z,3.87
2023-01-21T21:36:18.759Z,4.73
2023-01-21T21:38:46.140Z,3.87
2023-01-21T21:41:34.232Z,2.30
2023-01-21T21:44:00.938Z,2.90
2023-01-21T21:46:46.806Z,3.60
2023-01-21T21:49:13.506Z,5.00
2023-01-21T21:51:40.303Z,2.77
2023-01-21T21:54:08.339Z,3.43
2023-01-21T21:56:35.845Z,3.30
2023-01-21T21:59:03.395Z,3.50
2023-01-21T22:01:31.269Z,2.90
2023-01-21T22:04:02.517Z,2.80
2023-01-21T22:06:29.823Z,3.50
2023-01-21T22:08:59.881Z,2.80
2023-01-21T22:11:28.630Z,2.40
2023-01-21T22:13:56.599Z,2.73
2023-01-21T22:16:26.509Z,2.60
2023-01-21T22:18:54.423Z,2.90
2023-01-21T22:21:27.763Z,2.70
2023-01-21T22:23:54.766Z,3.07
2023-01-21T22:26:23.194Z,2.50
2023-01-21T22:28:53.128Z,2.73
2023-01-21T22:31:26.078Z,2.03
2023-01-21T22:33:53.125Z,2.80
2023-01-21T22:36:21.918Z,2.50
2023-01-21T22:38:49.473Z,3.07
2023-01-21T22:41:19.099Z,2.37
2023-01-21T22:43:50.083Z,2.77
2023-01-21T22:46:20.082Z,2.20
2023-01-21T22:48:46.952Z,2.93
2023-01-21T22:51:15.852Z,2.60
2023-01-21T22:53:45.496Z,2.50
2023-01-21T22:56:14.008Z,2.87
2023-01-21T22:58:41.046Z,2.43
2023-01-21T23:01:09.321Z,2.90
2023-01-21T23:03:37.284Z,2.73
2023-01-21T23:06:06.287Z,2.60
2023-01-21T23:08:33.288Z,2.40
2023-01-21T23:11:05.300Z,2.50
2023-01-21T23:13:33.506Z,2.20
2023-01-21T23:16:01.024Z,2.63
2023-01-21T23:18:29.258Z,2.43
2023-01-21T23:20:56.463Z,2.10
2023-01-21T23:23:24.699Z,2.43
2023-01-21T23:25:51.824Z,2.20
2023-01-21T23:28:18.516Z,2.40
2023-01-21T23:30:45.350Z,2.23
2023-01-21T23:33:12.149Z,2.20
2023-01-21T23:35:38.877Z,2.03
2023-01-21T23:38:05.550Z,2.20
2023-01-21T23:40:32.261Z,2.20
2023-01-21T23:42:58.978Z,2.47
2023-01-21T23:45:25.788Z,2.37
2023-01-21T23:47:53.714Z,1.87
2023-01-21T23:50:20.735Z,1.97
2023-01-21T23:52:47.501Z,2.23
2023-01-21T23:55:14.687Z,2.20
2023-01-21T23:57:41.427Z,2.43
